Weather at Linz-Hörsching Airport / Vogler Air Base

Public forecast

Using degrees Celsius for public forecast. Weather courtesy of forecast.io.

Current aviation weather report (METAR) for Linz-Hörsching Airport / Vogler Air Base

2024/06/14 12:50 (retrieved 25 minutes ago)

LOWL 141250Z AUTO 25004KT 220V290 9999 NCD 19/11 Q1015 NOSIG

Aviation forecast (TAF) for Linz-Hörsching Airport / Vogler Air Base

2024/06/14 12:21 (retrieved 54 minutes ago)

TAF LOWL 141115Z 1412/1512 10005KT 9999 FEW060 SCT080 TX21/1512Z TN12/1503Z TEMPO 1413/1417 29008KT TEMPO 1503/1506 09010KT BECMG 1508/1510 27015KT TEMPO 1509/1512 27025G35KT